Weather at H A S Hanandjoeddin International Airport

Public forecast

Using degrees Celsius for public forecast. Weather courtesy of forecast.io.

Closest aviation weather report (METAR) to H A S Hanandjoeddin International Airport

Closest report is Sultan Mahmud Badaruddin II Airport, 183.5 nm (339.9 km) W.

2024/06/22 13:00 (retrieved 34 minutes ago)

WIPP 221300Z 11008KT 9999 SCT011 29/24 Q1009 NOSIG

Closest aviation forecast (TAF) to H A S Hanandjoeddin International Airport

Closest forecast is Sultan Mahmud Badaruddin II Airport, 183.5 nm (339.9 km) W.

2024/06/22 12:03 (retrieved 2 hours ago)

TAF WIPP 221100Z 2212/2312 12008KT 9999 SCT010 TEMPO 2221/2301 3000 BR